Flight Track Log - Related Links

Times and Time Zones

All times are in EDT time to prevent confusion due to time zone crossing. See the CDG4988 flight status page for this flight to view local times or setup timezone preferences in your user account.

Time Position Orientation Groundspeed Altitude Reporting Facility
EDT Latitude Longitude Course Direction KTS MPH feet Rate Location/Type
Sun 08:15:00 AM 31.1213 120.0280 339° North  Level Estimated
Sun 08:16:00 AM 31.2024 119.9909 339° North  Level Estimated
Sun 08:17:00 AM 31.2835 119.9538 339° North  Level Estimated
Sun 08:18:00 AM 31.3646 119.9166 339° North  Level Estimated
Sun 08:19:00 AM 31.4457 119.8793 339° North  Level Estimated
Sun 08:20:00 AM 31.5268 119.8420 339° North  Level Estimated
Sun 08:21:00 AM 31.6078 119.8046 339° North  Level Estimated
Sun 08:22:00 AM 31.6889 119.7672 339° North  Level Estimated
Sun 08:23:00 AM 31.7699 119.7297 339° North  Level Estimated
Sun 08:24:00 AM 31.8510 119.6921 338° Northwest  Level Estimated
Sun 08:25:00 AM 31.9320 119.6544 338° Northwest  Level Estimated
Sun 08:26:00 AM 32.0130 119.6167 338° Northwest  Level Estimated
Sun 08:27:00 AM 32.0940 119.5789 338° Northwest  Level Estimated
Sun 08:28:00 AM 32.1750 119.5411 338° Northwest  Level Estimated
Sun 08:29:00 AM 32.2560 119.5031 338° Northwest  Level Estimated
Sun 08:30:00 AM 32.3369 119.4651 338° Northwest  Level Estimated
Sun 08:31:00 AM 32.4179 119.4271 338° Northwest  Level Estimated
Sun 08:32:00 AM 32.4988 119.3889 338° Northwest  Level Estimated
Sun 08:33:00 AM 32.5797 119.3508 338° Northwest  Level Estimated
Sun 08:34:00 AM 32.6607 119.3125 338° Northwest  Level Estimated
Sun 08:35:00 AM 32.7416 119.2742 338° Northwest  Level Estimated
Sun 08:36:00 AM 32.8225 119.2358 338° Northwest  Level Estimated
Sun 08:37:00 AM 32.9033 119.1973 338° Northwest  Level Estimated
Sun 08:38:00 AM 32.9842 119.1588 338° Northwest  Level Estimated
Sun 08:39:00 AM 33.0651 119.1201 338° Northwest  Level Estimated
Sun 08:40:00 AM 33.1459 119.0815 338° Northwest  Level Estimated
Sun 08:41:00 AM 33.2267 119.0427 338° Northwest  Level Estimated
Sun 08:42:00 AM 33.3076 119.0039 338° Northwest  Level Estimated
Sun 08:43:00 AM 33.3884 118.9650 338° Northwest  Level Estimated
Sun 08:44:00 AM 33.4692 118.9260 338° Northwest  Level Estimated
Sun 08:45:00 AM 33.5500 118.8870 338° Northwest  Level Estimated
Sun 08:46:00 AM 33.6307 118.8478 338° Northwest  Level Estimated
Sun 08:47:00 AM 33.7115 118.8087 338° Northwest  Level Estimated
Sun 08:48:00 AM 33.7923 118.7694 338° Northwest  Level Estimated
Sun 08:49:00 AM 33.8730 118.7301 338° Northwest  Level Estimated
Sun 08:50:00 AM 33.9537 118.6907 338° Northwest  Level Estimated
Sun 08:51:00 AM 34.0344 118.6512 338° Northwest  Level Estimated
Sun 08:52:00 AM 34.1151 118.6116 338° Northwest  Level Estimated
Sun 08:53:00 AM 34.1958 118.5720 338° Northwest  Level Estimated
Sun 08:54:00 AM 34.2765 118.5322 338° Northwest  Level Estimated
Sun 08:55:00 AM 34.3571 118.4924 338° Northwest  Level Estimated
Sun 08:56:00 AM 34.4378 118.4526 338° Northwest  Level Estimated
Sun 08:57:00 AM 34.5184 118.4126 338° Northwest  Level Estimated
Sun 08:58:00 AM 34.5990 118.3726 338° Northwest  Level Estimated
Sun 08:59:00 AM 34.6796 118.3325 338° Northwest  Level Estimated
Sun 09:00:00 AM 34.7603 118.2923 338° Northwest  Level Estimated
Sun 09:01:00 AM 34.8408 118.2521 338° Northwest  Level Estimated
Sun 09:02:00 AM 34.9214 118.2117 338° Northwest  Level Estimated
Sun 09:03:00 AM 35.0020 118.1713 338° Northwest  Level Estimated
Sun 09:04:00 AM 35.0825 118.1308 338° Northwest  Level Estimated
Sun 09:05:00 AM 35.1630 118.0903 338° Northwest  Level Estimated
Sun 09:06:00 AM 35.2435 118.0496 338° Northwest  Level Estimated
Sun 09:07:00 AM 35.3240 118.0089 338° Northwest  Level Estimated
Sun 09:08:00 AM 35.4045 117.9680 338° Northwest  Level Estimated
Sun 09:09:00 AM 35.4850 117.9271 338° Northwest  Level Estimated
Sun 09:10:00 AM 35.5655 117.8862 337° Northwest  Level Estimated
Sun 09:11:00 AM 35.6459 117.8451 337° Northwest  Level Estimated
Sun 09:12:00 AM 35.7263 117.8039 337° Northwest  Level Estimated
Sun 09:13:00 AM 35.8068 117.7627 337° Northwest  Level Estimated
Sun 09:14:00 AM 35.8872 117.7214 337° Northwest  Level Estimated
Sun 09:15:00 AM 35.9675 117.6800 337° Northwest  Level Estimated
Sun 09:16:00 AM 36.0479 117.6385 337° Northwest  Level Estimated
Sun 09:17:00 AM 36.1283 117.5970 337° Northwest  Level Estimated
Sun 09:18:00 AM 36.2086 117.5553 337° Northwest  Level Estimated
Sun 09:19:00 AM 36.2890 117.5136 337° Northwest  Level Estimated
Sun 09:20:00 AM 36.3693 117.4717 337° Northwest  Level Estimated
Sun 09:21:00 AM 36.4496 117.4298 337° Northwest  Level Estimated
Sun 09:22:00 AM 36.5299 117.3878 337° Northwest  Level Estimated
Sun 09:23:00 AM 36.6101 117.3458 337° Northwest  Level Estimated
Sun 09:24:00 AM 36.6904 117.3036 337° Northwest  Level Estimated
Sun 09:25:00 AM 36.7706 117.2613 337° Northwest  Level Estimated
Sun 09:26:00 AM 36.8509 117.2190 337° Northwest  Level Estimated
Sun 09:27:00 AM 36.8566 117.2160 337° Northwest  Level Estimated
Sun 09:28:00 AM 36.8566 117.2160 73° East  Level Estimated
Sun 09:29:00 AM 36.8566 117.2160 73° East  Level Estimated
Sun 09:30:00 AM 36.8566 117.2160 73° East  Level Estimated
Sun 09:31:00 AM 36.8566 117.2160 73° East  Level Estimated
Sun 09:32:00 AM 36.8566 117.2160 73° East  Level Estimated
Sun 09:33:00 AM 36.8566 117.2160 73° East  Level Estimated
Sun 09:34:00 AM 36.8566 117.2160 73° East  Level Estimated
Sun 09:35:00 AM 36.8566 117.2160 73° East  Level Estimated
Sun 09:36:00 AM 36.8566 117.2160 73° East  Level Estimated
Sun 09:37:00 AM 36.8566 117.2160 73° East  Level Estimated
Sun 09:38:00 AM 36.8566 117.2160 73° East  Level Estimated
Sun 09:39:00 AM 36.8566 117.2160 73° East  Level Estimated
Sun 09:40:00 AM 36.8566 117.2160 73° East  Level Estimated
Sun 09:41:00 AM 36.8566 117.2160 73° East  Level Estimated

Login

Don't have an account? Register now (free) for customized features, flight alerts, and more!